Main page
METAR-TAF:

METAR-TAF

Airports :

London Southend Airport

London-Southend, England

latitude: 51-34N, longitude: 000-42E, elevation: 15 m

Current weather observation

The report was made 18 minutes ago, at 14:20 UTC
Wind 13 kt from the West/Southwest
Temperature 20°C
Humidity 43%
Pressure 1018 hPa
Visibility 10 km or more
no clouds below 1500 m and no cumulonimbus

METAR: EGMC 071420Z 24013KT CAVOK 20/07 Q1018

Time: 15:38 (14:38 UTC)

Forecast

The report was made 6 hours and 40 minutes ago, at 07:58 UTC
Forecast valid from 07 at 09 UTC to 07 at 18 UTC
Wind 8 kt from the West/Southwest
Visibility 10 km or more
Few clouds at a height of 4800 ft

TAF: EGMC 070758Z 0709/0718 24008KT 9999 FEW048

Weather observations and forecasts of more than 4000 airports (METAR and TAF reports).

The available stations are represented by yellow and red dots on the map.

Hover mouse over dot to see the name of the station.

Then click to see weather observations and forecasts.

To change the map : click on the green buttons with a black cross to zoom in, on the green button with a dash to zoom out, or on the green arrows for adjacent maps.


METAR-TAF: